sensor_id;sensor_type;location;lat;lon;timestamp;P1;durP1;ratioP1;P2;durP2;ratioP2
22965;SDS011;11649;48.090;9.754;2023-10-31T00:06:37;3.53;;;3.10;;
22965;SDS011;11649;48.090;9.754;2023-10-31T00:09:04;4.88;;;3.47;;
22965;SDS011;11649;48.090;9.754;2023-10-31T00:22:53;4.57;;;4.00;;
22965;SDS011;11649;48.090;9.754;2023-10-31T00:25:20;4.93;;;4.18;;
22965;SDS011;11649;48.090;9.754;2023-10-31T00:27:47;5.30;;;4.00;;
22965;SDS011;11649;48.090;9.754;2023-10-31T00:40:15;6.30;;;4.63;;
22965;SDS011;11649;48.090;9.754;2023-10-31T00:42:42;5.47;;;4.97;;
22965;SDS011;11649;48.090;9.754;2023-10-31T00:45:10;5.53;;;4.63;;
22965;SDS011;11649;48.090;9.754;2023-10-31T00:47:37;6.82;;;4.05;;
22965;SDS011;11649;48.090;9.754;2023-10-31T00:50:03;5.70;;;4.70;;
22965;SDS011;11649;48.090;9.754;2023-10-31T00:52:31;5.68;;;4.63;;
22965;SDS011;11649;48.090;9.754;2023-10-31T00:54:57;5.63;;;5.03;;
22965;SDS011;11649;48.090;9.754;2023-10-31T00:57:24;7.63;;;5.10;;
22965;SDS011;11649;48.090;9.754;2023-10-31T00:59:51;6.38;;;4.60;;
22965;SDS011;11649;48.090;9.754;2023-10-31T01:02:18;7.47;;;4.85;;
22965;SDS011;11649;48.090;9.754;2023-10-31T01:04:44;5.05;;;4.53;;
22965;SDS011;11649;48.090;9.754;2023-10-31T01:07:11;5.28;;;4.35;;
22965;SDS011;11649;48.090;9.754;2023-10-31T01:09:38;5.70;;;4.85;;
22965;SDS011;11649;48.090;9.754;2023-10-31T01:12:05;4.95;;;4.25;;
22965;SDS011;11649;48.090;9.754;2023-10-31T01:14:32;6.25;;;4.38;;
22965;SDS011;11649;48.090;9.754;2023-10-31T01:16:59;4.35;;;3.95;;
22965;SDS011;11649;48.090;9.754;2023-10-31T01:19:26;6.57;;;4.60;;
22965;SDS011;11649;48.090;9.754;2023-10-31T01:21:52;5.20;;;4.35;;
22965;SDS011;11649;48.090;9.754;2023-10-31T01:24:19;7.45;;;4.43;;
22965;SDS011;11649;48.090;9.754;2023-10-31T01:26:46;5.10;;;4.60;;
22965;SDS011;11649;48.090;9.754;2023-10-31T01:29:13;5.40;;;4.25;;
22965;SDS011;11649;48.090;9.754;2023-10-31T01:31:43;4.25;;;3.85;;
22965;SDS011;11649;48.090;9.754;2023-10-31T01:36:51;4.20;;;3.80;;
22965;SDS011;11649;48.090;9.754;2023-10-31T01:39:18;4.95;;;3.80;;
22965;SDS011;11649;48.090;9.754;2023-10-31T01:41:45;3.70;;;3.30;;
22965;SDS011;11649;48.090;9.754;2023-10-31T01:44:12;3.25;;;2.95;;
22965;SDS011;11649;48.090;9.754;2023-10-31T01:46:39;5.70;;;3.55;;
22965;SDS011;11649;48.090;9.754;2023-10-31T01:49:06;6.22;;;3.00;;
22965;SDS011;11649;48.090;9.754;2023-10-31T01:51:33;5.20;;;3.00;;
22965;SDS011;11649;48.090;9.754;2023-10-31T01:53:59;5.80;;;2.80;;
22965;SDS011;11649;48.090;9.754;2023-10-31T01:56:26;4.07;;;2.78;;
22965;SDS011;11649;48.090;9.754;2023-10-31T01:58:53;4.95;;;3.08;;
22965;SDS011;11649;48.090;9.754;2023-10-31T02:01:20;4.07;;;3.10;;
22965;SDS011;11649;48.090;9.754;2023-10-31T02:03:47;3.05;;;2.70;;
22965;SDS011;11649;48.090;9.754;2023-10-31T02:06:15;4.78;;;2.63;;
22965;SDS011;11649;48.090;9.754;2023-10-31T02:08:42;2.58;;;2.38;;
22965;SDS011;11649;48.090;9.754;2023-10-31T02:11:09;2.47;;;2.20;;
22965;SDS011;11649;48.090;9.754;2023-10-31T02:13:36;2.47;;;2.22;;
22965;SDS011;11649;48.090;9.754;2023-10-31T02:16:04;2.10;;;1.90;;
22965;SDS011;11649;48.090;9.754;2023-10-31T02:18:31;1.60;;;1.40;;
22965;SDS011;11649;48.090;9.754;2023-10-31T02:20:59;1.98;;;1.70;;
22965;SDS011;11649;48.090;9.754;2023-10-31T02:23:25;1.60;;;1.50;;
22965;SDS011;11649;48.090;9.754;2023-10-31T02:25:52;2.30;;;1.60;;
22965;SDS011;11649;48.090;9.754;2023-10-31T02:28:19;1.50;;;1.40;;
22965;SDS011;11649;48.090;9.754;2023-10-31T02:30:46;2.22;;;1.70;;
22965;SDS011;11649;48.090;9.754;2023-10-31T02:33:13;3.20;;;1.50;;
22965;SDS011;11649;48.090;9.754;2023-10-31T02:35:39;2.05;;;1.52;;
22965;SDS011;11649;48.090;9.754;2023-10-31T02:38:06;1.15;;;1.00;;
22965;SDS011;11649;48.090;9.754;2023-10-31T02:40:33;1.10;;;1.00;;
22965;SDS011;11649;48.090;9.754;2023-10-31T02:43:00;1.50;;;0.90;;
22965;SDS011;11649;48.090;9.754;2023-10-31T02:45:27;1.65;;;0.93;;
22965;SDS011;11649;48.090;9.754;2023-10-31T02:47:54;3.63;;;0.90;;
22965;SDS011;11649;48.090;9.754;2023-10-31T02:50:22;0.77;;;0.77;;
22965;SDS011;11649;48.090;9.754;2023-10-31T02:52:48;1.42;;;0.85;;
22965;SDS011;11649;48.090;9.754;2023-10-31T02:55:15;2.15;;;0.90;;
22965;SDS011;11649;48.090;9.754;2023-10-31T02:57:42;1.65;;;1.10;;
22965;SDS011;11649;48.090;9.754;2023-10-31T03:00:09;1.67;;;0.88;;
22965;SDS011;11649;48.090;9.754;2023-10-31T03:02:37;1.35;;;0.85;;
22965;SDS011;11649;48.090;9.754;2023-10-31T03:05:04;4.97;;;0.65;;
22965;SDS011;11649;48.090;9.754;2023-10-31T03:07:31;1.52;;;0.80;;
22965;SDS011;11649;48.090;9.754;2023-10-31T03:09:58;0.80;;;0.70;;
22965;SDS011;11649;48.090;9.754;2023-10-31T03:12:24;0.73;;;0.60;;
22965;SDS011;11649;48.090;9.754;2023-10-31T03:14:51;1.42;;;0.88;;
22965;SDS011;11649;48.090;9.754;2023-10-31T03:17:18;2.05;;;0.90;;
22965;SDS011;11649;48.090;9.754;2023-10-31T03:19:45;1.10;;;0.80;;
22965;SDS011;11649;48.090;9.754;2023-10-31T03:22:12;1.42;;;0.70;;
22965;SDS011;11649;48.090;9.754;2023-10-31T03:24:39;1.88;;;0.70;;
22965;SDS011;11649;48.090;9.754;2023-10-31T03:27:06;1.40;;;0.80;;
22965;SDS011;11649;48.090;9.754;2023-10-31T03:29:33;1.15;;;0.80;;
22965;SDS011;11649;48.090;9.754;2023-10-31T03:32:00;2.25;;;0.70;;
22965;SDS011;11649;48.090;9.754;2023-10-31T03:34:27;0.80;;;0.70;;
22965;SDS011;11649;48.090;9.754;2023-10-31T03:36:54;1.15;;;0.85;;
22965;SDS011;11649;48.090;9.754;2023-10-31T03:39:20;4.07;;;0.80;;
22965;SDS011;11649;48.090;9.754;2023-10-31T03:41:47;1.30;;;0.63;;
22965;SDS011;11649;48.090;9.754;2023-10-31T03:44:14;0.73;;;0.70;;
22965;SDS011;11649;48.090;9.754;2023-10-31T03:46:41;0.70;;;0.70;;
22965;SDS011;11649;48.090;9.754;2023-10-31T03:49:08;0.95;;;0.73;;
22965;SDS011;11649;48.090;9.754;2023-10-31T03:51:34;3.00;;;0.98;;
22965;SDS011;11649;48.090;9.754;2023-10-31T03:54:01;2.17;;;0.60;;
22965;SDS011;11649;48.090;9.754;2023-10-31T03:56:28;1.88;;;0.65;;
22965;SDS011;11649;48.090;9.754;2023-10-31T03:58:55;3.00;;;0.80;;
22965;SDS011;11649;48.090;9.754;2023-10-31T04:01:22;5.20;;;0.80;;
22965;SDS011;11649;48.090;9.754;2023-10-31T04:03:48;1.65;;;0.70;;
22965;SDS011;11649;48.090;9.754;2023-10-31T04:06:15;0.82;;;0.63;;
22965;SDS011;11649;48.090;9.754;2023-10-31T04:08:42;0.90;;;0.80;;
22965;SDS011;11649;48.090;9.754;2023-10-31T04:11:09;0.95;;;0.60;;
22965;SDS011;11649;48.090;9.754;2023-10-31T04:13:36;2.72;;;1.00;;
22965;SDS011;11649;48.090;9.754;2023-10-31T04:16:02;1.85;;;0.70;;
22965;SDS011;11649;48.090;9.754;2023-10-31T04:18:30;1.55;;;0.73;;
22965;SDS011;11649;48.090;9.754;2023-10-31T04:20:57;2.08;;;0.80;;
22965;SDS011;11649;48.090;9.754;2023-10-31T04:23:23;1.23;;;0.68;;
22965;SDS011;11649;48.090;9.754;2023-10-31T04:25:50;3.83;;;0.80;;
22965;SDS011;11649;48.090;9.754;2023-10-31T04:28:18;2.17;;;0.80;;
22965;SDS011;11649;48.090;9.754;2023-10-31T04:30:45;2.25;;;0.90;;
22965;SDS011;11649;48.090;9.754;2023-10-31T04:33:12;0.70;;;0.57;;
22965;SDS011;11649;48.090;9.754;2023-10-31T04:35:39;5.25;;;0.70;;
22965;SDS011;11649;48.090;9.754;2023-10-31T04:38:06;1.08;;;0.93;;
22965;SDS011;11649;48.090;9.754;2023-10-31T04:40:33;2.72;;;0.82;;
22965;SDS011;11649;48.090;9.754;2023-10-31T04:42:59;6.20;;;0.60;;
22965;SDS011;11649;48.090;9.754;2023-10-31T04:45:27;1.92;;;0.80;;
22965;SDS011;11649;48.090;9.754;2023-10-31T04:47:54;1.88;;;0.77;;
22965;SDS011;11649;48.090;9.754;2023-10-31T04:50:24;1.83;;;0.80;;
22965;SDS011;11649;48.090;9.754;2023-10-31T04:52:51;3.42;;;1.58;;
22965;SDS011;11649;48.090;9.754;2023-10-31T04:55:18;1.05;;;0.57;;
22965;SDS011;11649;48.090;9.754;2023-10-31T04:57:45;0.60;;;0.60;;
22965;SDS011;11649;48.090;9.754;2023-10-31T05:00:12;2.28;;;0.85;;
22965;SDS011;11649;48.090;9.754;2023-10-31T05:02:39;0.75;;;0.75;;
22965;SDS011;11649;48.090;9.754;2023-10-31T05:05:06;1.83;;;1.00;;
22965;SDS011;11649;48.090;9.754;2023-10-31T05:07:33;3.00;;;1.65;;
22965;SDS011;11649;48.090;9.754;2023-10-31T05:10:00;1.00;;;0.90;;
22965;SDS011;11649;48.090;9.754;2023-10-31T05:12:27;1.50;;;1.10;;
22965;SDS011;11649;48.090;9.754;2023-10-31T05:14:54;4.68;;;1.17;;
22965;SDS011;11649;48.090;9.754;2023-10-31T05:17:21;2.60;;;2.10;;
22965;SDS011;11649;48.090;9.754;2023-10-31T05:19:48;2.10;;;1.17;;
22965;SDS011;11649;48.090;9.754;2023-10-31T05:22:15;2.50;;;1.52;;
22965;SDS011;11649;48.090;9.754;2023-10-31T05:24:42;1.45;;;1.10;;
22965;SDS011;11649;48.090;9.754;2023-10-31T05:27:09;2.08;;;0.93;;
22965;SDS011;11649;48.090;9.754;2023-10-31T05:29:38;2.20;;;0.98;;
22965;SDS011;11649;48.090;9.754;2023-10-31T05:32:05;1.58;;;0.82;;
22965;SDS011;11649;48.090;9.754;2023-10-31T05:34:32;7.35;;;1.00;;
22965;SDS011;11649;48.090;9.754;2023-10-31T05:36:59;1.77;;;0.95;;
22965;SDS011;11649;48.090;9.754;2023-10-31T05:39:26;1.33;;;0.90;;
22965;SDS011;11649;48.090;9.754;2023-10-31T05:41:53;1.02;;;0.80;;
22965;SDS011;11649;48.090;9.754;2023-10-31T05:44:19;1.13;;;0.80;;
22965;SDS011;11649;48.090;9.754;2023-10-31T05:46:46;2.85;;;0.80;;
22965;SDS011;11649;48.090;9.754;2023-10-31T05:49:13;1.73;;;0.90;;
22965;SDS011;11649;48.090;9.754;2023-10-31T05:51:40;1.90;;;1.20;;
22965;SDS011;11649;48.090;9.754;2023-10-31T05:54:07;4.35;;;1.50;;
22965;SDS011;11649;48.090;9.754;2023-10-31T05:56:34;1.50;;;1.10;;
22965;SDS011;11649;48.090;9.754;2023-10-31T05:59:01;4.50;;;2.08;;
22965;SDS011;11649;48.090;9.754;2023-10-31T06:01:28;2.65;;;1.70;;
22965;SDS011;11649;48.090;9.754;2023-10-31T06:03:55;2.60;;;0.90;;
22965;SDS011;11649;48.090;9.754;2023-10-31T06:06:21;1.85;;;1.00;;
22965;SDS011;11649;48.090;9.754;2023-10-31T06:08:48;3.33;;;1.50;;
22965;SDS011;11649;48.090;9.754;2023-10-31T06:11:15;3.25;;;1.35;;
22965;SDS011;11649;48.090;9.754;2023-10-31T06:13:42;3.70;;;1.65;;
22965;SDS011;11649;48.090;9.754;2023-10-31T06:16:09;4.05;;;1.73;;
22965;SDS011;11649;48.090;9.754;2023-10-31T06:18:37;2.75;;;1.00;;
22965;SDS011;11649;48.090;9.754;2023-10-31T06:21:05;7.53;;;2.67;;
22965;SDS011;11649;48.090;9.754;2023-10-31T06:23:36;9.05;;;4.35;;
22965;SDS011;11649;48.090;9.754;2023-10-31T06:26:03;5.22;;;2.53;;
22965;SDS011;11649;48.090;9.754;2023-10-31T06:28:31;5.10;;;2.45;;
22965;SDS011;11649;48.090;9.754;2023-10-31T06:31:05;2.83;;;1.60;;
22965;SDS011;11649;48.090;9.754;2023-10-31T06:33:32;4.25;;;1.40;;
22965;SDS011;11649;48.090;9.754;2023-10-31T06:35:59;8.55;;;1.45;;
22965;SDS011;11649;48.090;9.754;2023-10-31T06:38:26;2.83;;;1.23;;
22965;SDS011;11649;48.090;9.754;2023-10-31T06:40:52;3.30;;;1.23;;
22965;SDS011;11649;48.090;9.754;2023-10-31T06:43:19;2.40;;;1.08;;
22965;SDS011;11649;48.090;9.754;2023-10-31T06:45:46;6.60;;;1.77;;
22965;SDS011;11649;48.090;9.754;2023-10-31T06:48:13;2.28;;;1.17;;
22965;SDS011;11649;48.090;9.754;2023-10-31T06:50:40;4.70;;;1.10;;
22965;SDS011;11649;48.090;9.754;2023-10-31T06:53:07;3.10;;;1.00;;
22965;SDS011;11649;48.090;9.754;2023-10-31T06:55:33;2.38;;;0.88;;
22965;SDS011;11649;48.090;9.754;2023-10-31T06:58:00;3.67;;;1.05;;
22965;SDS011;11649;48.090;9.754;2023-10-31T07:00:27;2.25;;;1.40;;
22965;SDS011;11649;48.090;9.754;2023-10-31T07:02:54;3.67;;;1.20;;
22965;SDS011;11649;48.090;9.754;2023-10-31T07:05:21;4.03;;;1.45;;
22965;SDS011;11649;48.090;9.754;2023-10-31T07:07:48;3.72;;;1.35;;
22965;SDS011;11649;48.090;9.754;2023-10-31T07:10:15;3.83;;;1.52;;
22965;SDS011;11649;48.090;9.754;2023-10-31T07:12:42;6.47;;;1.33;;
22965;SDS011;11649;48.090;9.754;2023-10-31T07:15:09;3.85;;;1.10;;
22965;SDS011;11649;48.090;9.754;2023-10-31T07:17:36;3.08;;;1.00;;
22965;SDS011;11649;48.090;9.754;2023-10-31T07:20:03;2.58;;;1.00;;
22965;SDS011;11649;48.090;9.754;2023-10-31T07:22:30;4.75;;;1.10;;
22965;SDS011;11649;48.090;9.754;2023-10-31T07:24:58;2.22;;;1.00;;
22965;SDS011;11649;48.090;9.754;2023-10-31T07:27:26;1.67;;;0.80;;
22965;SDS011;11649;48.090;9.754;2023-10-31T07:29:52;2.78;;;0.93;;
22965;SDS011;11649;48.090;9.754;2023-10-31T07:32:19;5.38;;;1.00;;
22965;SDS011;11649;48.090;9.754;2023-10-31T07:34:46;2.80;;;1.20;;
22965;SDS011;11649;48.090;9.754;2023-10-31T07:37:13;3.72;;;1.00;;
22965;SDS011;11649;48.090;9.754;2023-10-31T07:39:40;4.25;;;1.25;;
22965;SDS011;11649;48.090;9.754;2023-10-31T07:42:08;6.20;;;1.45;;
22965;SDS011;11649;48.090;9.754;2023-10-31T07:44:35;5.05;;;1.73;;
22965;SDS011;11649;48.090;9.754;2023-10-31T07:47:02;4.03;;;1.65;;
22965;SDS011;11649;48.090;9.754;2023-10-31T07:49:29;6.43;;;2.42;;
22965;SDS011;11649;48.090;9.754;2023-10-31T07:51:55;4.78;;;1.50;;
22965;SDS011;11649;48.090;9.754;2023-10-31T07:54:22;5.82;;;1.65;;
22965;SDS011;11649;48.090;9.754;2023-10-31T07:56:49;5.40;;;2.05;;
22965;SDS011;11649;48.090;9.754;2023-10-31T07:59:16;7.60;;;1.48;;
22965;SDS011;11649;48.090;9.754;2023-10-31T08:01:43;13.07;;;3.33;;
22965;SDS011;11649;48.090;9.754;2023-10-31T08:04:10;5.25;;;1.90;;
22965;SDS011;11649;48.090;9.754;2023-10-31T08:06:37;3.50;;;1.63;;
22965;SDS011;11649;48.090;9.754;2023-10-31T08:09:03;4.15;;;1.30;;
22965;SDS011;11649;48.090;9.754;2023-10-31T08:11:34;6.45;;;1.63;;
22965;SDS011;11649;48.090;9.754;2023-10-31T08:14:01;6.90;;;1.55;;
22965;SDS011;11649;48.090;9.754;2023-10-31T08:16:28;4.05;;;1.20;;
22965;SDS011;11649;48.090;9.754;2023-10-31T08:18:55;5.55;;;1.30;;
22965;SDS011;11649;48.090;9.754;2023-10-31T08:21:22;2.17;;;1.25;;
22965;SDS011;11649;48.090;9.754;2023-10-31T08:23:49;4.32;;;1.90;;
22965;SDS011;11649;48.090;9.754;2023-10-31T08:26:16;4.20;;;1.60;;
22965;SDS011;11649;48.090;9.754;2023-10-31T08:28:42;2.47;;;1.50;;
22965;SDS011;11649;48.090;9.754;2023-10-31T08:31:09;1.70;;;1.10;;
22965;SDS011;11649;48.090;9.754;2023-10-31T08:33:36;5.03;;;1.30;;
22965;SDS011;11649;48.090;9.754;2023-10-31T08:36:06;1.13;;;0.82;;
22965;SDS011;11649;48.090;9.754;2023-10-31T08:38:33;5.63;;;1.02;;
22965;SDS011;11649;48.090;9.754;2023-10-31T08:41:00;3.60;;;1.10;;
22965;SDS011;11649;48.090;9.754;2023-10-31T08:43:27;2.45;;;1.45;;
22965;SDS011;11649;48.090;9.754;2023-10-31T08:45:54;1.75;;;1.05;;
22965;SDS011;11649;48.090;9.754;2023-10-31T08:48:21;3.30;;;1.15;;
22965;SDS011;11649;48.090;9.754;2023-10-31T08:50:48;2.63;;;1.30;;
22965;SDS011;11649;48.090;9.754;2023-10-31T08:53:15;2.53;;;1.00;;
22965;SDS011;11649;48.090;9.754;2023-10-31T08:55:42;4.28;;;1.58;;
22965;SDS011;11649;48.090;9.754;2023-10-31T08:58:12;6.93;;;1.85;;
22965;SDS011;11649;48.090;9.754;2023-10-31T09:00:39;2.60;;;1.08;;
22965;SDS011;11649;48.090;9.754;2023-10-31T09:03:09;4.45;;;1.90;;
22965;SDS011;11649;48.090;9.754;2023-10-31T09:05:37;1.90;;;1.20;;
22965;SDS011;11649;48.090;9.754;2023-10-31T09:08:03;4.28;;;1.58;;
22965;SDS011;11649;48.090;9.754;2023-10-31T09:10:32;4.68;;;1.80;;
22965;SDS011;11649;48.090;9.754;2023-10-31T09:13:00;3.80;;;1.50;;
22965;SDS011;11649;48.090;9.754;2023-10-31T09:15:26;2.55;;;1.15;;
22965;SDS011;11649;48.090;9.754;2023-10-31T09:17:53;5.25;;;1.40;;
22965;SDS011;11649;48.090;9.754;2023-10-31T09:20:20;4.55;;;0.90;;
22965;SDS011;11649;48.090;9.754;2023-10-31T09:22:47;4.47;;;1.38;;
22965;SDS011;11649;48.090;9.754;2023-10-31T09:25:14;2.70;;;1.10;;
22965;SDS011;11649;48.090;9.754;2023-10-31T09:27:49;2.40;;;1.17;;
22965;SDS011;11649;48.090;9.754;2023-10-31T09:30:16;2.95;;;1.10;;
22965;SDS011;11649;48.090;9.754;2023-10-31T09:32:43;3.00;;;1.02;;
22965;SDS011;11649;48.090;9.754;2023-10-31T09:35:11;2.97;;;0.90;;
22965;SDS011;11649;48.090;9.754;2023-10-31T09:37:38;2.08;;;1.00;;
22965;SDS011;11649;48.090;9.754;2023-10-31T09:40:06;4.13;;;1.05;;
22965;SDS011;11649;48.090;9.754;2023-10-31T09:42:33;5.25;;;1.40;;
22965;SDS011;11649;48.090;9.754;2023-10-31T09:45:00;4.00;;;0.85;;
22965;SDS011;11649;48.090;9.754;2023-10-31T09:47:27;2.95;;;0.90;;
22965;SDS011;11649;48.090;9.754;2023-10-31T09:49:56;4.05;;;1.10;;
22965;SDS011;11649;48.090;9.754;2023-10-31T09:52:24;1.95;;;1.00;;
22965;SDS011;11649;48.090;9.754;2023-10-31T09:54:51;1.52;;;0.90;;
22965;SDS011;11649;48.090;9.754;2023-10-31T09:57:19;5.13;;;0.90;;
22965;SDS011;11649;48.090;9.754;2023-10-31T09:59:46;3.35;;;1.92;;
22965;SDS011;11649;48.090;9.754;2023-10-31T10:02:13;7.80;;;3.33;;
22965;SDS011;11649;48.090;9.754;2023-10-31T10:04:40;5.63;;;2.30;;
22965;SDS011;11649;48.090;9.754;2023-10-31T10:07:13;3.42;;;1.10;;
22965;SDS011;11649;48.090;9.754;2023-10-31T10:09:45;2.92;;;1.00;;
22965;SDS011;11649;48.090;9.754;2023-10-31T10:12:13;1.80;;;1.00;;
22965;SDS011;11649;48.090;9.754;2023-10-31T10:14:41;2.40;;;1.10;;
22965;SDS011;11649;48.090;9.754;2023-10-31T10:17:23;1.92;;;1.02;;
22965;SDS011;11649;48.090;9.754;2023-10-31T10:20:07;7.38;;;1.20;;
22965;SDS011;11649;48.090;9.754;2023-10-31T10:22:39;3.72;;;1.00;;
22965;SDS011;11649;48.090;9.754;2023-10-31T10:25:07;2.42;;;1.08;;
22965;SDS011;11649;48.090;9.754;2023-10-31T10:27:34;2.17;;;1.10;;
22965;SDS011;11649;48.090;9.754;2023-10-31T10:30:02;1.83;;;1.25;;
22965;SDS011;11649;48.090;9.754;2023-10-31T10:32:34;2.40;;;1.15;;
22965;SDS011;11649;48.090;9.754;2023-10-31T10:35:01;2.88;;;0.90;;
22965;SDS011;11649;48.090;9.754;2023-10-31T10:37:29;2.30;;;0.70;;
22965;SDS011;11649;48.090;9.754;2023-10-31T10:39:57;1.85;;;0.98;;
22965;SDS011;11649;48.090;9.754;2023-10-31T10:42:40;1.92;;;0.80;;
22965;SDS011;11649;48.090;9.754;2023-10-31T10:45:09;1.08;;;0.60;;
22965;SDS011;11649;48.090;9.754;2023-10-31T10:47:39;0.85;;;0.63;;
22965;SDS011;11649;48.090;9.754;2023-10-31T10:50:08;1.50;;;1.17;;
22965;SDS011;11649;48.090;9.754;2023-10-31T10:52:41;2.50;;;1.10;;
22965;SDS011;11649;48.090;9.754;2023-10-31T10:55:13;1.48;;;0.98;;
22965;SDS011;11649;48.090;9.754;2023-10-31T10:58:04;2.63;;;1.08;;
22965;SDS011;11649;48.090;9.754;2023-10-31T11:00:34;1.15;;;0.70;;
22965;SDS011;11649;48.090;9.754;2023-10-31T11:03:02;3.88;;;1.10;;
22965;SDS011;11649;48.090;9.754;2023-10-31T11:05:36;1.58;;;0.90;;
22965;SDS011;11649;48.090;9.754;2023-10-31T11:08:14;1.30;;;0.80;;
22965;SDS011;11649;48.090;9.754;2023-10-31T11:10:49;1.27;;;0.85;;
22965;SDS011;11649;48.090;9.754;2023-10-31T11:13:16;3.00;;;1.02;;
22965;SDS011;11649;48.090;9.754;2023-10-31T11:15:44;1.52;;;0.90;;
22965;SDS011;11649;48.090;9.754;2023-10-31T11:18:12;2.92;;;1.27;;
22965;SDS011;11649;48.090;9.754;2023-10-31T11:20:39;2.63;;;1.17;;
22965;SDS011;11649;48.090;9.754;2023-10-31T11:23:20;2.33;;;1.10;;
22965;SDS011;11649;48.090;9.754;2023-10-31T11:25:55;2.75;;;0.93;;
22965;SDS011;11649;48.090;9.754;2023-10-31T11:28:32;1.83;;;1.02;;
22965;SDS011;11649;48.090;9.754;2023-10-31T11:31:02;1.63;;;1.25;;
22965;SDS011;11649;48.090;9.754;2023-10-31T11:33:29;2.30;;;1.20;;
22965;SDS011;11649;48.090;9.754;2023-10-31T11:36:02;3.10;;;1.45;;
22965;SDS011;11649;48.090;9.754;2023-10-31T11:38:31;4.17;;;1.13;;
22965;SDS011;11649;48.090;9.754;2023-10-31T11:41:02;4.05;;;1.40;;
22965;SDS011;11649;48.090;9.754;2023-10-31T11:46:23;5.50;;;3.17;;
22965;SDS011;11649;48.090;9.754;2023-10-31T11:49:00;4.32;;;2.50;;
22965;SDS011;11649;48.090;9.754;2023-10-31T11:51:28;2.00;;;1.30;;
22965;SDS011;11649;48.090;9.754;2023-10-31T11:53:55;1.95;;;1.35;;
22965;SDS011;11649;48.090;9.754;2023-10-31T11:56:22;1.70;;;1.10;;
22965;SDS011;11649;48.090;9.754;2023-10-31T12:05:36;2.72;;;1.42;;
22965;SDS011;11649;48.090;9.754;2023-10-31T12:13:12;1.33;;;1.02;;
22965;SDS011;11649;48.090;9.754;2023-10-31T12:16:08;3.53;;;1.50;;
22965;SDS011;11649;48.090;9.754;2023-10-31T12:18:41;1.95;;;1.40;;
22965;SDS011;11649;48.090;9.754;2023-10-31T12:21:08;2.70;;;1.52;;
22965;SDS011;11649;48.090;9.754;2023-10-31T12:23:37;5.90;;;1.45;;
22965;SDS011;11649;48.090;9.754;2023-10-31T12:26:04;2.85;;;1.70;;
22965;SDS011;11649;48.090;9.754;2023-10-31T12:28:31;3.92;;;1.90;;
22965;SDS011;11649;48.090;9.754;2023-10-31T12:30:58;3.25;;;1.88;;
22965;SDS011;11649;48.090;9.754;2023-10-31T12:33:25;2.60;;;1.80;;
22965;SDS011;11649;48.090;9.754;2023-10-31T12:36:00;22.88;;;7.05;;
22965;SDS011;11649;48.090;9.754;2023-10-31T12:38:28;9.63;;;4.65;;
22965;SDS011;11649;48.090;9.754;2023-10-31T12:40:55;2.67;;;1.27;;
22965;SDS011;11649;48.090;9.754;2023-10-31T12:43:24;3.30;;;1.48;;
22965;SDS011;11649;48.090;9.754;2023-10-31T12:45:52;15.60;;;7.90;;
22965;SDS011;11649;48.090;9.754;2023-10-31T12:48:23;5.95;;;3.40;;
22965;SDS011;11649;48.090;9.754;2023-10-31T12:50:55;7.15;;;3.50;;
22965;SDS011;11649;48.090;9.754;2023-10-31T12:53:33;1.63;;;1.10;;
22965;SDS011;11649;48.090;9.754;2023-10-31T12:56:01;1.67;;;1.17;;
22965;SDS011;11649;48.090;9.754;2023-10-31T12:58:29;4.43;;;2.40;;
22965;SDS011;11649;48.090;9.754;2023-10-31T13:00:56;7.15;;;2.92;;
22965;SDS011;11649;48.090;9.754;2023-10-31T13:03:23;3.40;;;1.83;;
22965;SDS011;11649;48.090;9.754;2023-10-31T13:05:50;3.20;;;1.80;;
22965;SDS011;11649;48.090;9.754;2023-10-31T13:08:17;9.18;;;2.03;;
22965;SDS011;11649;48.090;9.754;2023-10-31T13:10:44;5.07;;;1.90;;
22965;SDS011;11649;48.090;9.754;2023-10-31T13:13:11;4.05;;;2.15;;
22965;SDS011;11649;48.090;9.754;2023-10-31T13:15:39;2.53;;;1.30;;
22965;SDS011;11649;48.090;9.754;2023-10-31T13:18:06;2.30;;;1.52;;
22965;SDS011;11649;48.090;9.754;2023-10-31T13:20:33;2.63;;;1.50;;
22965;SDS011;11649;48.090;9.754;2023-10-31T13:23:00;3.28;;;1.80;;
22965;SDS011;11649;48.090;9.754;2023-10-31T13:25:29;3.15;;;1.85;;
22965;SDS011;11649;48.090;9.754;2023-10-31T13:27:58;3.33;;;1.65;;
22965;SDS011;11649;48.090;9.754;2023-10-31T13:30:25;3.03;;;1.55;;
22965;SDS011;11649;48.090;9.754;2023-10-31T13:32:52;2.15;;;1.50;;
22965;SDS011;11649;48.090;9.754;2023-10-31T13:35:19;2.92;;;1.60;;
22965;SDS011;11649;48.090;9.754;2023-10-31T13:37:47;3.58;;;1.38;;
22965;SDS011;11649;48.090;9.754;2023-10-31T13:40:14;1.77;;;1.15;;
22965;SDS011;11649;48.090;9.754;2023-10-31T13:42:41;2.38;;;1.38;;
22965;SDS011;11649;48.090;9.754;2023-10-31T13:45:08;2.80;;;2.17;;
22965;SDS011;11649;48.090;9.754;2023-10-31T13:47:37;1.25;;;0.93;;
22965;SDS011;11649;48.090;9.754;2023-10-31T13:50:05;3.83;;;1.00;;
22965;SDS011;11649;48.090;9.754;2023-10-31T13:52:33;1.40;;;1.02;;
22965;SDS011;11649;48.090;9.754;2023-10-31T13:55:00;2.35;;;1.10;;
22965;SDS011;11649;48.090;9.754;2023-10-31T13:57:27;2.42;;;1.10;;
22965;SDS011;11649;48.090;9.754;2023-10-31T13:59:54;2.25;;;0.90;;
22965;SDS011;11649;48.090;9.754;2023-10-31T14:02:21;1.48;;;1.00;;
22965;SDS011;11649;48.090;9.754;2023-10-31T14:04:49;2.10;;;0.98;;
22965;SDS011;11649;48.090;9.754;2023-10-31T14:07:20;2.00;;;0.82;;
22965;SDS011;11649;48.090;9.754;2023-10-31T14:09:51;2.58;;;1.23;;
22965;SDS011;11649;48.090;9.754;2023-10-31T14:12:19;1.73;;;0.95;;
22965;SDS011;11649;48.090;9.754;2023-10-31T14:14:46;1.63;;;1.08;;
22965;SDS011;11649;48.090;9.754;2023-10-31T14:17:15;2.75;;;1.00;;
22965;SDS011;11649;48.090;9.754;2023-10-31T14:19:43;2.25;;;1.00;;
22965;SDS011;11649;48.090;9.754;2023-10-31T14:22:13;1.90;;;1.20;;
22965;SDS011;11649;48.090;9.754;2023-10-31T14:24:40;0.90;;;0.80;;
22965;SDS011;11649;48.090;9.754;2023-10-31T14:27:13;2.20;;;1.05;;
22965;SDS011;11649;48.090;9.754;2023-10-31T14:29:40;2.38;;;0.90;;
22965;SDS011;11649;48.090;9.754;2023-10-31T14:32:07;2.85;;;0.95;;
22965;SDS011;11649;48.090;9.754;2023-10-31T14:34:37;1.42;;;0.90;;
22965;SDS011;11649;48.090;9.754;2023-10-31T14:37:46;2.42;;;1.15;;
22965;SDS011;11649;48.090;9.754;2023-10-31T14:40:36;2.15;;;1.10;;
22965;SDS011;11649;48.090;9.754;2023-10-31T14:43:02;1.15;;;0.90;;
22965;SDS011;11649;48.090;9.754;2023-10-31T14:45:29;2.35;;;1.42;;
22965;SDS011;11649;48.090;9.754;2023-10-31T14:47:56;1.65;;;1.10;;
22965;SDS011;11649;48.090;9.754;2023-10-31T14:50:23;2.28;;;1.58;;
22965;SDS011;11649;48.090;9.754;2023-10-31T14:52:50;2.22;;;1.30;;
22965;SDS011;11649;48.090;9.754;2023-10-31T14:55:17;1.98;;;1.38;;
22965;SDS011;11649;48.090;9.754;2023-10-31T14:57:43;1.52;;;1.13;;
22965;SDS011;11649;48.090;9.754;2023-10-31T15:00:11;1.45;;;1.13;;
22965;SDS011;11649;48.090;9.754;2023-10-31T15:02:40;2.70;;;1.50;;
22965;SDS011;11649;48.090;9.754;2023-10-31T15:05:07;2.72;;;1.70;;
22965;SDS011;11649;48.090;9.754;2023-10-31T15:07:35;2.55;;;1.60;;
22965;SDS011;11649;48.090;9.754;2023-10-31T15:10:01;4.03;;;1.85;;
22965;SDS011;11649;48.090;9.754;2023-10-31T15:12:29;3.08;;;1.70;;
22965;SDS011;11649;48.090;9.754;2023-10-31T15:14:56;3.05;;;2.05;;
22965;SDS011;11649;48.090;9.754;2023-10-31T15:17:23;2.45;;;1.88;;
22965;SDS011;11649;48.090;9.754;2023-10-31T15:19:50;2.40;;;1.42;;
22965;SDS011;11649;48.090;9.754;2023-10-31T15:22:16;2.72;;;2.05;;
22965;SDS011;11649;48.090;9.754;2023-10-31T15:24:43;3.80;;;2.35;;
22965;SDS011;11649;48.090;9.754;2023-10-31T15:27:10;2.25;;;1.67;;
22965;SDS011;11649;48.090;9.754;2023-10-31T15:29:41;4.15;;;2.60;;
22965;SDS011;11649;48.090;9.754;2023-10-31T15:32:08;4.22;;;2.30;;
22965;SDS011;11649;48.090;9.754;2023-10-31T15:34:35;4.10;;;2.70;;
22965;SDS011;11649;48.090;9.754;2023-10-31T15:37:05;3.95;;;2.92;;